createdAt,value
2023-01-07T00:00:07.103Z,14.50
2023-01-07T00:16:42.006Z,14.30
2023-01-07T00:19:58.186Z,13.30
2023-01-07T00:23:08.974Z,14.70
2023-01-07T00:33:00.238Z,14.70
2023-01-07T00:36:07.007Z,13.40
2023-01-07T00:39:16.161Z,13.90
2023-01-07T00:42:13.192Z,13.80
2023-01-07T00:44:50.331Z,15.70
2023-01-07T00:47:30.284Z,15.10
2023-01-07T00:50:04.169Z,16.10
2023-01-07T00:52:38.855Z,16.60
2023-01-07T00:55:25.042Z,17.10
2023-01-07T00:58:12.763Z,16.00
2023-01-07T01:00:53.607Z,17.50
2023-01-07T01:03:32.736Z,17.30
2023-01-07T01:06:19.275Z,17.30
2023-01-07T01:09:01.168Z,18.20
2023-01-07T01:11:47.850Z,18.30
2023-01-07T01:14:36.346Z,18.20
2023-01-07T01:17:28.030Z,16.30
2023-01-07T01:20:22.251Z,19.60
2023-01-07T01:23:07.460Z,18.10
2023-01-07T01:26:12.195Z,16.80
2023-01-07T01:29:02.174Z,18.70
2023-01-07T01:31:53.025Z,17.60
2023-01-07T01:35:01.970Z,19.00
2023-01-07T01:37:58.129Z,20.10
2023-01-07T01:40:47.614Z,15.80
2023-01-07T01:43:46.901Z,20.60
2023-01-07T01:46:47.137Z,19.40
2023-01-07T01:49:51.556Z,18.90
2023-01-07T01:53:12.029Z,19.10
2023-01-07T01:56:35.606Z,19.60
2023-01-07T01:59:42.641Z,19.50
2023-01-07T02:02:47.223Z,19.10
2023-01-07T02:05:45.889Z,19.60
2023-01-07T02:08:49.874Z,19.50
2023-01-07T02:12:04.049Z,20.30
2023-01-07T02:15:38.325Z,20.70
2023-01-07T02:18:37.672Z,19.40
2023-01-07T02:22:14.795Z,18.90
2023-01-07T02:25:30.994Z,19.40
2023-01-07T02:28:42.894Z,19.80
2023-01-07T02:31:30.150Z,20.70
2023-01-07T02:34:44.330Z,19.20
2023-01-07T02:41:02.646Z,19.70
2023-01-07T02:44:14.363Z,20.10
2023-01-07T02:47:31.012Z,19.70
2023-01-07T02:50:23.037Z,20.70
2023-01-07T02:53:15.020Z,19.90
2023-01-07T02:56:16.939Z,19.00
2023-01-07T02:59:24.814Z,19.80
2023-01-07T03:02:44.605Z,22.10
2023-01-07T03:06:03.431Z,20.10
2023-01-07T03:09:15.864Z,20.50
2023-01-07T03:12:38.294Z,20.40
2023-01-07T03:15:42.824Z,19.40
2023-01-07T03:18:50.319Z,19.10
2023-01-07T03:21:45.385Z,20.50
2023-01-07T03:24:41.230Z,20.00
2023-01-07T03:27:46.235Z,19.90
2023-01-07T03:30:45.706Z,19.10
2023-01-07T03:33:45.086Z,18.00
2023-01-07T03:37:02.425Z,18.80
2023-01-07T03:39:59.676Z,20.50
2023-01-07T03:42:57.855Z,20.70
2023-01-07T03:45:50.374Z,19.30
2023-01-07T03:48:40.390Z,18.80
2023-01-07T03:51:36.930Z,18.20
2023-01-07T03:54:26.342Z,18.30
2023-01-07T03:57:17.623Z,18.10
2023-01-07T04:00:14.777Z,18.30
2023-01-07T04:03:01.729Z,18.60
2023-01-07T04:06:00.790Z,17.50
2023-01-07T04:08:54.689Z,17.40
2023-01-07T04:11:55.186Z,18.20
2023-01-07T04:14:59.235Z,18.80
2023-01-07T04:17:56.970Z,18.30
2023-01-07T04:21:04.989Z,16.50
2023-01-07T04:24:08.612Z,16.40
2023-01-07T04:27:32.181Z,15.40
2023-01-07T04:30:39.054Z,17.80
2023-01-07T04:33:39.835Z,15.20
2023-01-07T04:36:30.938Z,18.20
2023-01-07T04:39:25.880Z,16.20
2023-01-07T04:42:22.873Z,15.60
2023-01-07T04:45:18.561Z,16.10
2023-01-07T04:48:11.407Z,16.10
2023-01-07T04:51:03.593Z,14.90
2023-01-07T04:53:55.207Z,15.60
2023-01-07T04:56:55.298Z,15.30
2023-01-07T04:59:46.223Z,16.60
2023-01-07T05:02:39.480Z,15.00
2023-01-07T05:05:28.383Z,13.50
2023-01-07T05:08:19.588Z,15.40
2023-01-07T05:11:10.398Z,15.40
2023-01-07T05:14:12.262Z,15.50
2023-01-07T05:17:15.027Z,15.40
2023-01-07T05:20:23.114Z,14.60
2023-01-07T05:23:40.043Z,14.90
2023-01-07T05:26:26.347Z,16.00
2023-01-07T05:29:01.328Z,15.80
2023-01-07T05:31:47.114Z,16.90
2023-01-07T05:34:33.158Z,16.50
2023-01-07T05:37:12.752Z,16.80
2023-01-07T05:39:58.079Z,17.10
2023-01-07T05:42:44.764Z,15.90
2023-01-07T05:45:41.042Z,17.70
2023-01-07T05:48:33.703Z,17.20
2023-01-07T05:51:26.209Z,17.50
2023-01-07T05:54:24.787Z,15.90
2023-01-07T05:57:33.555Z,16.80
2023-01-07T06:00:31.621Z,16.70
2023-01-07T06:03:30.140Z,16.50
2023-01-07T06:06:21.236Z,16.40
2023-01-07T06:09:46.232Z,14.10
2023-01-07T06:12:40.245Z,13.50
2023-01-07T06:45:55.231Z,12.80
2023-01-07T07:12:49.936Z,11.10
2023-01-07T07:20:59.284Z,11.30
2023-01-07T07:29:04.768Z,12.00
2023-01-07T07:44:00.110Z,10.70
2023-01-07T07:51:22.514Z,12.10
2023-01-07T07:55:51.593Z,12.10
2023-01-07T08:02:19.736Z,12.90
2023-01-07T08:08:49.354Z,12.80
2023-01-07T08:11:55.943Z,12.40
2023-01-07T08:14:52.682Z,11.80
2023-01-07T08:18:26.526Z,11.70
2023-01-07T08:25:19.729Z,12.70
2023-01-07T08:28:48.624Z,11.40
2023-01-07T09:54:01.009Z,12.10
2023-01-07T09:56:55.460Z,12.70
2023-01-07T11:02:30.412Z,12.00
2023-01-07T11:05:03.864Z,12.50
2023-01-07T11:53:16.072Z,12.50
2023-01-07T12:00:48.892Z,10.50
2023-01-07T12:03:22.643Z,12.00
2023-01-07T12:11:20.565Z,12.00
2023-01-07T14:39:55.381Z,11.30
2023-01-07T14:42:45.804Z,10.50
2023-01-07T14:45:40.916Z,10.00
2023-01-07T14:48:18.934Z,9.70
2023-01-07T14:51:38.383Z,9.60
2023-01-07T14:54:24.956Z,10.10
2023-01-07T14:57:40.839Z,9.70
2023-01-07T15:01:04.738Z,9.00
2023-01-07T15:04:43.535Z,9.70
2023-01-07T15:11:57.636Z,9.80
2023-01-07T15:15:33.947Z,8.90
2023-01-07T18:28:48.296Z,18.60
2023-01-07T18:43:19.972Z,23.90
2023-01-07T18:47:45.462Z,23.90
2023-01-07T18:50:01.721Z,19.90
2023-01-07T21:47:53.924Z,21.60
